createdAt,value
2017-01-13T00:00:52.086Z,4.89
2017-01-13T00:01:52.082Z,4.95
2017-01-13T00:02:52.078Z,4.86
2017-01-13T00:03:52.062Z,4.84
2017-01-13T00:04:52.070Z,4.87
2017-01-13T00:05:52.058Z,4.89
2017-01-13T00:06:52.062Z,4.87
2017-01-13T00:07:51.654Z,4.87
2017-01-13T00:08:52.043Z,4.92
2017-01-13T00:09:52.054Z,4.9
2017-01-13T00:10:51.627Z,5.02
2017-01-13T00:11:51.634Z,4.94
2017-01-13T00:12:51.210Z,4.98
2017-01-13T00:13:51.623Z,5
2017-01-13T00:14:51.612Z,5.07
2017-01-13T00:15:51.611Z,5.04
2017-01-13T00:16:52.026Z,5.1
2017-01-13T00:17:51.615Z,5.02
2017-01-13T00:18:51.598Z,5.01
2017-01-13T00:19:52.011Z,5.01
2017-01-13T00:20:52.015Z,5.02
2017-01-13T00:21:51.595Z,5.07
2017-01-13T00:22:51.171Z,5.02
2017-01-13T00:23:51.175Z,5.1
2017-01-13T00:24:51.587Z,5.07
2017-01-13T00:25:51.163Z,5.12
2017-01-13T00:26:51.579Z,5.16
2017-01-13T00:27:51.991Z,5.04
2017-01-13T00:28:51.979Z,5.05
2017-01-13T00:29:51.979Z,5.19
2017-01-13T00:30:51.984Z,5.18
2017-01-13T00:31:51.559Z,5.13
2017-01-13T00:32:51.547Z,5.07
2017-01-13T00:33:51.555Z,5.13
2017-01-13T00:34:51.548Z,5.15
2017-01-13T00:35:51.955Z,5.13
2017-01-13T00:36:51.544Z,5.18
2017-01-13T00:37:51.544Z,5.23
2017-01-13T00:38:51.948Z,5.2
2017-01-13T00:39:51.948Z,5.2
2017-01-13T00:40:51.536Z,5.25
2017-01-13T00:41:51.524Z,5.25
2017-01-13T00:42:51.515Z,5.28
2017-01-13T00:43:51.519Z,5.29
2017-01-13T00:44:51.508Z,5.46
2017-01-13T00:45:51.923Z,5.49
2017-01-13T00:46:51.513Z,5.37
2017-01-13T00:47:51.946Z,5.38
2017-01-13T00:48:51.921Z,5.47
2017-01-13T00:49:51.504Z,5.41
2017-01-13T00:50:51.080Z,5.44
2017-01-13T00:51:51.496Z,5.47
2017-01-13T00:52:51.900Z,5.58
2017-01-13T00:53:51.484Z,5.46
2017-01-13T00:54:51.484Z,5.43
2017-01-13T00:55:51.892Z,5.44
2017-01-13T00:56:51.480Z,5.41
2017-01-13T00:57:51.484Z,5.51
2017-01-13T00:58:51.476Z,5.33
2017-01-13T00:59:51.048Z,5.4
2017-01-13T01:00:51.868Z,5.37
2017-01-13T01:01:51.876Z,5.4
2017-01-13T01:02:51.464Z,5.46
2017-01-13T01:03:51.456Z,5.37
2017-01-13T01:04:51.864Z,5.43
2017-01-13T01:05:51.856Z,5.38
2017-01-13T01:06:51.856Z,5.38
2017-01-13T01:07:51.432Z,5.31
2017-01-13T01:08:51.845Z,5.28
2017-01-13T01:09:51.849Z,5.31
2017-01-13T01:10:51.846Z,5.26
2017-01-13T01:11:51.837Z,5.28
2017-01-13T01:12:51.429Z,5.23
2017-01-13T01:13:51.833Z,5.25
2017-01-13T01:14:51.409Z,5.28
2017-01-13T01:15:51.413Z,5.25
2017-01-13T01:16:51.405Z,5.29
2017-01-13T01:17:51.829Z,5.34
2017-01-13T01:18:51.813Z,5.36
2017-01-13T01:19:51.809Z,5.34
2017-01-13T01:20:51.813Z,5.33
2017-01-13T01:21:51.801Z,5.34
2017-01-13T01:22:51.389Z,5.38
2017-01-13T01:23:50.981Z,5.37
2017-01-13T01:24:51.793Z,5.41
2017-01-13T01:25:51.793Z,5.47
2017-01-13T01:26:51.785Z,5.38
2017-01-13T01:27:51.785Z,5.4
2017-01-13T01:28:51.369Z,5.4
2017-01-13T01:29:51.370Z,5.44
2017-01-13T01:30:51.362Z,5.38
2017-01-13T01:31:51.354Z,5.38
2017-01-13T01:32:51.362Z,5.37
2017-01-13T01:33:51.758Z,5.43
2017-01-13T01:34:51.750Z,5.51
2017-01-13T01:35:51.762Z,5.47
2017-01-13T01:36:51.754Z,5.49
2017-01-13T01:37:51.342Z,5.58
2017-01-13T01:38:50.926Z,5.49
2017-01-13T01:39:51.321Z,5.55
2017-01-13T01:40:51.742Z,5.62
2017-01-13T01:41:51.738Z,5.61
2017-01-13T01:42:51.322Z,5.64
2017-01-13T01:43:51.730Z,5.69
2017-01-13T01:44:51.734Z,5.67
2017-01-13T01:45:51.310Z,5.72
2017-01-13T01:46:51.302Z,5.72
2017-01-13T01:47:51.314Z,5.69
2017-01-13T01:48:51.714Z,5.67
2017-01-13T01:49:51.707Z,5.67
2017-01-13T01:50:51.710Z,5.67
2017-01-13T01:51:51.706Z,5.7
2017-01-13T01:52:51.290Z,5.65
2017-01-13T01:53:51.286Z,5.67
2017-01-13T01:54:51.286Z,5.56
2017-01-13T01:55:51.843Z,5.54
2017-01-13T01:56:51.691Z,5.51
2017-01-13T01:57:51.275Z,5.58
2017-01-13T01:58:51.703Z,5.52
2017-01-13T01:59:50.856Z,5.46
2017-01-13T02:00:51.255Z,5.51
2017-01-13T02:01:51.663Z,5.47
2017-01-13T02:02:51.675Z,5.38
2017-01-13T02:03:51.667Z,5.4
2017-01-13T02:04:51.663Z,5.54
2017-01-13T02:05:51.247Z,5.44
2017-01-13T02:06:51.647Z,5.56
2017-01-13T02:07:51.647Z,5.54
2017-01-13T02:08:51.235Z,5.52
2017-01-13T02:09:51.643Z,5.51
2017-01-13T02:10:51.648Z,5.46
2017-01-13T02:11:51.223Z,5.56
2017-01-13T02:12:51.214Z,5.49
2017-01-13T02:13:51.627Z,5.55
2017-01-13T02:14:50.807Z,5.52
2017-01-13T02:15:51.627Z,5.49
2017-01-13T02:16:51.616Z,5.38
2017-01-13T02:17:51.619Z,5.36
2017-01-13T02:18:51.207Z,5.34
2017-01-13T02:19:51.615Z,5.44
2017-01-13T02:20:51.199Z,5.34
2017-01-13T02:21:51.600Z,5.22
2017-01-13T02:22:51.600Z,5.22
2017-01-13T02:23:51.216Z,5.15
2017-01-13T02:24:51.188Z,5.1
2017-01-13T02:25:51.591Z,5.02
2017-01-13T02:26:51.584Z,4.98
2017-01-13T02:27:51.163Z,5.01
2017-01-13T02:28:51.584Z,4.94
2017-01-13T02:29:50.744Z,4.89
2017-01-13T02:30:51.576Z,4.86
2017-01-13T02:31:51.152Z,4.74
2017-01-13T02:32:51.156Z,4.86
2017-01-13T02:33:51.152Z,4.79
2017-01-13T02:34:51.140Z,4.78
2017-01-13T02:35:51.580Z,4.75
2017-01-13T02:36:51.548Z,4.66
2017-01-13T02:37:51.552Z,4.66
2017-01-13T02:38:51.540Z,4.61
2017-01-13T02:39:50.728Z,4.66
2017-01-13T02:40:51.544Z,4.58
2017-01-13T02:41:51.537Z,4.58
2017-01-13T02:42:51.120Z,4.5
2017-01-13T02:43:51.525Z,4.48
2017-01-13T02:44:51.112Z,4.42
2017-01-13T02:45:50.700Z,4.45
2017-01-13T02:46:51.525Z,4.39
2017-01-13T02:47:51.101Z,4.32
2017-01-13T02:48:51.105Z,4.3
2017-01-13T02:49:51.089Z,4.2
2017-01-13T02:50:51.496Z,4.27
2017-01-13T02:51:51.093Z,4.24
2017-01-13T02:52:51.501Z,4.24
2017-01-13T02:53:51.077Z,4.21
2017-01-13T02:54:51.497Z,4.2
2017-01-13T02:55:51.641Z,4.18
2017-01-13T02:56:51.485Z,4.22
2017-01-13T02:57:51.069Z,4.16
2017-01-13T02:58:51.477Z,4.16
2017-01-13T02:59:51.478Z,4.21
2017-01-13T03:00:51.469Z,4.16
2017-01-13T03:01:51.061Z,4.22
2017-01-13T03:02:51.463Z,4.14
2017-01-13T03:03:51.466Z,4.18
2017-01-13T03:04:51.461Z,4.12
2017-01-13T03:05:51.037Z,4.18
2017-01-13T03:06:51.449Z,4.1
2017-01-13T03:07:51.441Z,4.09
2017-01-13T03:08:51.032Z,4.1
2017-01-13T03:09:51.434Z,4.13
2017-01-13T03:10:51.425Z,4.04
2017-01-13T03:11:51.426Z,4.06
2017-01-13T03:12:51.054Z,4.09
2017-01-13T03:13:51.034Z,4.09
2017-01-13T03:14:51.006Z,3.99
2017-01-13T03:15:51.006Z,4.09
2017-01-13T03:16:51.406Z,4.03
2017-01-13T03:17:50.998Z,3.95
2017-01-13T03:18:51.006Z,4.06
2017-01-13T03:19:50.990Z,3.91
2017-01-13T03:20:51.426Z,3.88
2017-01-13T03:21:50.986Z,3.78
2017-01-13T03:22:51.394Z,3.82
2017-01-13T03:23:50.970Z,3.73
2017-01-13T03:24:51.391Z,3.71
2017-01-13T03:25:50.966Z,3.78
2017-01-13T03:26:50.973Z,3.74
2017-01-13T03:27:50.958Z,3.71
2017-01-13T03:28:51.382Z,3.67
2017-01-13T03:29:50.962Z,3.77
2017-01-13T03:30:51.366Z,3.73
2017-01-13T03:31:50.946Z,3.68
2017-01-13T03:32:50.946Z,3.66
2017-01-13T03:33:51.342Z,3.66
2017-01-13T03:34:51.354Z,3.61
2017-01-13T03:35:50.935Z,3.66
2017-01-13T03:36:50.934Z,3.58
2017-01-13T03:37:51.334Z,3.61
2017-01-13T03:38:50.926Z,3.59
2017-01-13T03:39:50.511Z,3.56
2017-01-13T03:40:51.331Z,3.66
2017-01-13T03:41:50.914Z,3.56
2017-01-13T03:42:50.903Z,3.61
2017-01-13T03:43:51.318Z,3.67
2017-01-13T03:44:50.906Z,3.63
2017-01-13T03:45:50.899Z,3.61
2017-01-13T03:46:51.339Z,3.63
2017-01-13T03:47:50.891Z,3.67
2017-01-13T03:48:50.895Z,3.74
2017-01-13T03:49:50.887Z,3.76
2017-01-13T03:50:50.471Z,3.73
2017-01-13T03:51:50.875Z,3.82
2017-01-13T03:52:50.874Z,3.78
2017-01-13T03:53:50.871Z,3.84
2017-01-13T03:54:50.890Z,3.74
2017-01-13T03:55:50.451Z,3.85
2017-01-13T03:56:50.855Z,3.74
2017-01-13T03:57:50.855Z,3.76
2017-01-13T03:58:50.443Z,3.82
2017-01-13T03:59:50.851Z,3.74
2017-01-13T04:00:50.847Z,3.74
2017-01-13T04:01:51.255Z,3.81
2017-01-13T04:02:51.255Z,3.78
2017-01-13T04:03:50.827Z,3.73
2017-01-13T04:04:50.831Z,3.73
2017-01-13T04:05:50.416Z,3.7
2017-01-13T04:06:50.819Z,3.66
2017-01-13T04:07:51.235Z,3.66
2017-01-13T04:08:50.815Z,3.64
2017-01-13T04:09:50.823Z,3.58
2017-01-13T04:10:51.224Z,3.63
2017-01-13T04:11:51.224Z,3.52
2017-01-13T04:12:51.216Z,3.56
2017-01-13T04:13:50.792Z,3.48
2017-01-13T04:14:50.795Z,3.46
2017-01-13T04:15:50.795Z,3.5
2017-01-13T04:16:51.196Z,3.37
2017-01-13T04:17:51.192Z,3.34
2017-01-13T04:18:51.184Z,3.3
2017-01-13T04:19:51.188Z,3.18
2017-01-13T04:20:50.772Z,3.3
2017-01-13T04:21:50.772Z,3.27
2017-01-13T04:22:50.348Z,3.27
2017-01-13T04:23:50.764Z,3.24
2017-01-13T04:24:50.756Z,3.21
2017-01-13T04:25:51.156Z,3.26
2017-01-13T04:26:51.168Z,3.16
2017-01-13T04:27:51.160Z,3.13
2017-01-13T04:28:50.736Z,3.16
2017-01-13T04:29:50.328Z,3.18
2017-01-13T04:30:51.152Z,3.15
2017-01-13T04:31:50.732Z,3.01
2017-01-13T04:32:50.732Z,3.05
2017-01-13T04:33:51.132Z,3.06
2017-01-13T04:34:51.124Z,3.06
2017-01-13T04:35:51.136Z,3.05
2017-01-13T04:36:50.304Z,2.98
2017-01-13T04:37:51.128Z,3.01
2017-01-13T04:38:50.713Z,2.94
2017-01-13T04:39:50.705Z,3.01
2017-01-13T04:40:51.113Z,2.95
2017-01-13T04:41:50.697Z,2.93
2017-01-13T04:42:50.689Z,2.9
2017-01-13T04:43:51.097Z,2.87
2017-01-13T04:44:50.681Z,2.88
2017-01-13T04:45:50.676Z,2.85
2017-01-13T04:46:50.673Z,2.79
2017-01-13T04:47:50.677Z,2.8
2017-01-13T04:48:50.665Z,2.76
2017-01-13T04:49:50.665Z,2.82
2017-01-13T04:50:51.081Z,2.8
2017-01-13T04:51:50.661Z,2.77
2017-01-13T04:52:51.108Z,2.77
2017-01-13T04:53:51.065Z,2.76
2017-01-13T04:54:50.669Z,2.8
2017-01-13T04:55:50.653Z,2.64
2017-01-13T04:56:50.633Z,2.7
2017-01-13T04:57:51.061Z,2.72
2017-01-13T04:58:51.048Z,2.79
2017-01-13T04:59:51.037Z,2.69
2017-01-13T05:00:50.628Z,2.68
2017-01-13T05:01:51.028Z,2.54
2017-01-13T05:02:50.616Z,2.68
2017-01-13T05:03:50.612Z,2.62
2017-01-13T05:04:51.020Z,2.51
2017-01-13T05:05:51.020Z,2.62
2017-01-13T05:06:50.600Z,2.64
2017-01-13T05:07:51.008Z,2.64
2017-01-13T05:08:51.039Z,2.58
2017-01-13T05:09:50.996Z,2.54
2017-01-13T05:10:51.000Z,2.61
2017-01-13T05:11:50.583Z,2.59
2017-01-13T05:12:50.587Z,2.61
2017-01-13T05:13:50.187Z,2.47
2017-01-13T05:14:50.983Z,2.46
2017-01-13T05:15:50.571Z,2.55
2017-01-13T05:16:50.981Z,2.51
2017-01-13T05:17:50.563Z,2.47
2017-01-13T05:18:50.964Z,2.46
2017-01-13T05:19:50.959Z,2.5
2017-01-13T05:20:50.959Z,2.52
2017-01-13T05:21:50.543Z,2.51
2017-01-13T05:22:50.539Z,2.44
2017-01-13T05:23:50.951Z,2.57
2017-01-13T05:24:50.943Z,2.55
2017-01-13T05:25:50.943Z,2.5
2017-01-13T05:26:50.527Z,2.52
2017-01-13T05:27:50.935Z,2.5
2017-01-13T05:28:50.523Z,2.54
2017-01-13T05:29:50.927Z,2.46
2017-01-13T05:30:50.507Z,2.44
2017-01-13T05:31:50.927Z,2.47
2017-01-13T05:32:50.503Z,2.41
2017-01-13T05:33:50.503Z,2.55
2017-01-13T05:34:50.907Z,2.47
2017-01-13T05:35:50.495Z,2.5
2017-01-13T05:36:50.899Z,2.51
2017-01-13T05:37:50.483Z,2.51
2017-01-13T05:38:50.479Z,2.46
2017-01-13T05:39:50.475Z,2.52
2017-01-13T05:40:50.055Z,2.43
2017-01-13T05:41:50.871Z,2.47
2017-01-13T05:42:50.455Z,2.54
2017-01-13T05:43:50.459Z,2.47
2017-01-13T05:44:50.868Z,2.44
2017-01-13T05:45:50.863Z,2.5
2017-01-13T05:46:50.863Z,2.55
2017-01-13T05:47:50.035Z,2.5
2017-01-13T05:48:50.851Z,2.44
2017-01-13T05:49:50.847Z,2.5
2017-01-13T05:50:50.831Z,2.46
2017-01-13T05:51:50.831Z,2.41
2017-01-13T05:52:50.831Z,2.33
2017-01-13T05:53:50.835Z,2.4
2017-01-13T05:54:50.419Z,2.37
2017-01-13T05:55:50.827Z,2.37
2017-01-13T05:56:50.411Z,2.36
2017-01-13T05:57:50.816Z,2.33
2017-01-13T05:58:50.816Z,2.39
2017-01-13T05:59:49.992Z,2.37
2017-01-13T06:00:50.808Z,2.28
2017-01-13T06:01:50.807Z,2.37
2017-01-13T06:02:50.388Z,2.32
2017-01-13T06:03:50.375Z,2.37
2017-01-13T06:04:50.787Z,2.28
2017-01-13T06:05:50.776Z,2.34
2017-01-13T06:06:50.787Z,2.21
2017-01-13T06:07:50.367Z,2.21
2017-01-13T06:08:50.772Z,2.3
2017-01-13T06:09:50.356Z,2.21
2017-01-13T06:10:50.356Z,2.14
2017-01-13T06:11:50.352Z,2.28
2017-01-13T06:12:50.344Z,2.22
2017-01-13T06:13:50.340Z,2.18
2017-01-13T06:14:50.756Z,2.18
2017-01-13T06:15:49.932Z,2.15
2017-01-13T06:16:50.336Z,2.14
2017-01-13T06:17:50.733Z,2.1
2017-01-13T06:18:50.325Z,2.08
2017-01-13T06:19:50.736Z,2.07
2017-01-13T06:20:50.321Z,2.07
2017-01-13T06:21:50.309Z,2.08
2017-01-13T06:22:50.725Z,2.07
2017-01-13T06:23:50.312Z,2.08
2017-01-13T06:24:50.713Z,2.1
2017-01-13T06:25:50.293Z,2.08
2017-01-13T06:26:50.289Z,2.01
2017-01-13T06:27:50.703Z,2.04
2017-01-13T06:28:50.703Z,2.05
2017-01-13T06:29:50.289Z,2.01
2017-01-13T06:30:50.268Z,2.01
2017-01-13T06:31:50.676Z,1.97
2017-01-13T06:32:50.676Z,1.89
2017-01-13T06:33:50.684Z,1.93
2017-01-13T06:34:50.260Z,1.86
2017-01-13T06:35:50.700Z,1.86
2017-01-13T06:36:50.256Z,1.88
2017-01-13T06:37:50.252Z,1.89
2017-01-13T06:38:50.660Z,1.86
2017-01-13T06:39:50.656Z,1.86
2017-01-13T06:40:50.240Z,1.71
2017-01-13T06:41:50.648Z,1.82
2017-01-13T06:42:50.228Z,1.76
2017-01-13T06:43:50.224Z,1.74
2017-01-13T06:44:50.636Z,1.76
2017-01-13T06:45:50.220Z,1.76
2017-01-13T06:46:50.624Z,1.76
2017-01-13T06:47:50.212Z,1.7
2017-01-13T06:48:50.204Z,1.79
2017-01-13T06:49:50.205Z,1.75
2017-01-13T06:50:50.608Z,1.78
2017-01-13T06:51:50.609Z,1.76
2017-01-13T06:52:49.784Z,1.78
2017-01-13T06:53:50.192Z,1.82
2017-01-13T06:54:50.593Z,1.71
2017-01-13T06:55:50.184Z,1.82
2017-01-13T06:56:50.177Z,1.92
2017-01-13T06:57:50.584Z,1.98
2017-01-13T06:58:50.577Z,2
2017-01-13T06:59:50.169Z,2.1
2017-01-13T07:00:50.165Z,2.05
2017-01-13T07:01:50.565Z,2.12
2017-01-13T07:02:49.741Z,2.18
2017-01-13T07:03:50.141Z,2.15
2017-01-13T07:04:50.561Z,2.16
2017-01-13T07:05:50.173Z,2.15
2017-01-13T07:06:50.133Z,2.08
2017-01-13T07:07:50.541Z,2.05
2017-01-13T07:08:50.545Z,2.12
2017-01-13T07:09:50.536Z,2.14
2017-01-13T07:10:50.534Z,2.1
2017-01-13T07:11:49.732Z,2.01
2017-01-13T07:12:50.530Z,2.04
2017-01-13T07:13:50.109Z,1.95
2017-01-13T07:14:50.102Z,2.01
2017-01-13T07:15:50.106Z,2.04
2017-01-13T07:16:50.106Z,2.08
2017-01-13T07:17:50.506Z,2.16
2017-01-13T07:18:50.497Z,2.15
2017-01-13T07:19:50.502Z,2.12
2017-01-13T07:20:50.086Z,2.05
2017-01-13T07:21:50.792Z,2.04
2017-01-13T07:22:50.482Z,2.04
2017-01-13T07:23:50.482Z,2.04
2017-01-13T07:24:50.066Z,2.1
2017-01-13T07:25:50.479Z,2.07
2017-01-13T07:26:50.071Z,2.16
2017-01-13T07:27:50.058Z,2.15
2017-01-13T07:28:50.466Z,2.14
2017-01-13T07:29:50.055Z,2.12
2017-01-13T07:30:49.631Z,2.15
2017-01-13T07:31:50.455Z,2.08
2017-01-13T07:32:50.451Z,2.16
2017-01-13T07:33:50.032Z,2.1
2017-01-13T07:34:50.443Z,2.18
2017-01-13T07:35:50.436Z,2.12
2017-01-13T07:36:50.019Z,2.21
2017-01-13T07:37:50.436Z,2.18
2017-01-13T07:38:50.012Z,2.15
2017-01-13T07:39:50.427Z,2.15
2017-01-13T07:40:50.420Z,2.18
2017-01-13T07:41:50.420Z,2.18
2017-01-13T07:42:49.992Z,2.19
2017-01-13T07:43:49.992Z,2.16
2017-01-13T07:44:50.404Z,2.16
2017-01-13T07:45:49.572Z,2.18
2017-01-13T07:46:50.545Z,2.15
2017-01-13T07:47:49.976Z,2.14
2017-01-13T07:48:49.976Z,2.16
2017-01-13T07:49:49.972Z,2.14
2017-01-13T07:50:49.552Z,2.07
2017-01-13T07:51:49.969Z,2.03
2017-01-13T07:52:50.373Z,2.04
2017-01-13T07:53:50.373Z,2.07
2017-01-13T07:54:49.953Z,1.98
2017-01-13T07:55:49.949Z,2.05
2017-01-13T07:56:50.357Z,2.03
2017-01-13T07:57:49.525Z,2.1
2017-01-13T07:58:50.341Z,2.07
2017-01-13T07:59:49.525Z,1.98
2017-01-13T08:00:49.933Z,2.14
2017-01-13T08:01:49.918Z,2.08
2017-01-13T08:02:49.925Z,2.04
2017-01-13T08:03:49.922Z,2.03
2017-01-13T08:04:50.330Z,2.04
2017-01-13T08:05:49.914Z,2.03
2017-01-13T08:06:50.322Z,2.15
2017-01-13T08:07:49.906Z,2.12
2017-01-13T08:08:49.899Z,2.16
2017-01-13T08:09:49.901Z,2.19
2017-01-13T08:10:49.894Z,2.08
2017-01-13T08:11:50.310Z,2.16
2017-01-13T08:12:49.907Z,2.21
2017-01-13T08:13:49.879Z,2.18
2017-01-13T08:14:50.287Z,2.19
2017-01-13T08:15:50.283Z,2.25
2017-01-13T08:16:50.283Z,2.18
2017-01-13T08:17:49.863Z,2.22
2017-01-13T08:18:50.276Z,2.3
2017-01-13T08:19:49.863Z,2.28
2017-01-13T08:20:50.269Z,2.28
2017-01-13T08:21:50.411Z,2.28
2017-01-13T08:22:49.847Z,2.26
2017-01-13T08:23:49.840Z,2.26
2017-01-13T08:24:50.248Z,2.21
2017-01-13T08:25:49.824Z,2.25
2017-01-13T08:26:50.252Z,2.26
2017-01-13T08:27:49.828Z,2.18
2017-01-13T08:28:49.420Z,2.15
2017-01-13T08:29:50.240Z,2.04
2017-01-13T08:30:50.233Z,2.03
2017-01-13T08:31:49.965Z,2.04
2017-01-13T08:32:50.233Z,2
2017-01-13T08:33:49.809Z,1.88
2017-01-13T08:34:49.809Z,1.95
2017-01-13T08:35:49.801Z,1.86
2017-01-13T08:36:50.205Z,1.84
2017-01-13T08:37:49.789Z,1.84
2017-01-13T08:38:50.201Z,1.67
2017-01-13T08:39:50.189Z,1.67
2017-01-13T08:40:50.189Z,1.63
2017-01-13T08:41:49.786Z,1.57
2017-01-13T08:42:49.769Z,1.75
2017-01-13T08:43:49.762Z,1.66
2017-01-13T08:44:50.178Z,1.61
2017-01-13T08:45:49.762Z,1.63
2017-01-13T08:46:49.770Z,1.74
2017-01-13T08:47:50.166Z,1.68
2017-01-13T08:48:49.342Z,1.68
2017-01-13T08:49:49.750Z,1.57
2017-01-13T08:50:49.742Z,1.6
2017-01-13T08:51:50.154Z,1.74
2017-01-13T08:52:49.742Z,1.61
2017-01-13T08:53:49.738Z,1.57
2017-01-13T08:54:50.147Z,1.7
2017-01-13T08:55:50.166Z,1.61
2017-01-13T08:56:50.138Z,1.71
2017-01-13T08:57:50.127Z,1.74
2017-01-13T08:58:50.126Z,1.71
2017-01-13T08:59:49.307Z,1.81
2017-01-13T09:00:50.119Z,1.71
2017-01-13T09:01:49.702Z,1.84
2017-01-13T09:02:50.120Z,1.88
2017-01-13T09:03:49.699Z,1.89
2017-01-13T09:04:50.107Z,2
2017-01-13T09:05:49.683Z,2.07
2017-01-13T09:06:49.691Z,2.16
2017-01-13T09:07:49.683Z,2.26
2017-01-13T09:08:49.263Z,2.25
2017-01-13T09:09:50.083Z,2.36
2017-01-13T09:10:49.683Z,2.4
2017-01-13T09:11:49.660Z,2.57
2017-01-13T09:12:50.071Z,2.54
2017-01-13T09:13:49.672Z,2.68
2017-01-13T09:14:49.655Z,2.8
2017-01-13T09:15:50.067Z,2.93
2017-01-13T09:16:49.804Z,3.06
2017-01-13T09:17:50.068Z,3.11
2017-01-13T09:18:49.652Z,3.19
2017-01-13T09:19:49.239Z,3.3
2017-01-13T09:20:50.040Z,3.3
2017-01-13T09:21:50.028Z,3.33
2017-01-13T09:22:49.628Z,3.45
2017-01-13T09:23:50.028Z,3.52
2017-01-13T09:24:49.624Z,3.5
2017-01-13T09:25:49.616Z,3.61
2017-01-13T09:26:49.620Z,3.63
2017-01-13T09:27:49.636Z,3.61
2017-01-13T09:28:50.020Z,3.66
2017-01-13T09:29:50.016Z,3.66
2017-01-13T09:30:49.596Z,3.76
2017-01-13T09:31:49.601Z,3.64
2017-01-13T09:32:49.588Z,3.73
2017-01-13T09:33:49.588Z,3.67
2017-01-13T09:34:49.588Z,3.64
2017-01-13T09:35:49.584Z,3.61
2017-01-13T09:36:49.577Z,3.59
2017-01-13T09:37:49.988Z,3.63
2017-01-13T09:38:49.576Z,3.58
2017-01-13T09:39:49.165Z,3.53
2017-01-13T09:40:49.560Z,3.48
2017-01-13T09:41:49.981Z,3.49
2017-01-13T09:42:49.556Z,3.53
2017-01-13T09:43:49.969Z,3.41
2017-01-13T09:44:49.553Z,3.49
2017-01-13T09:45:49.964Z,3.43
2017-01-13T09:46:49.965Z,3.5
2017-01-13T09:47:49.537Z,3.41
2017-01-13T09:48:49.533Z,3.34
2017-01-13T09:49:49.933Z,3.3
2017-01-13T09:50:49.525Z,3.33
2017-01-13T09:51:49.525Z,3.26
2017-01-13T09:52:49.937Z,3.43
2017-01-13T09:53:49.929Z,3.26
2017-01-13T09:54:49.517Z,3.24
2017-01-13T09:55:49.921Z,3.27
2017-01-13T09:56:49.917Z,3.26
2017-01-13T09:57:49.505Z,3.21
2017-01-13T09:58:49.501Z,3.15
2017-01-13T09:59:49.913Z,3.27
2017-01-13T10:00:49.497Z,3.18
2017-01-13T10:01:49.493Z,3.19
2017-01-13T10:02:49.902Z,3.31
2017-01-13T10:03:49.898Z,3.36
2017-01-13T10:04:49.486Z,3.49
2017-01-13T10:05:49.886Z,3.58
2017-01-13T10:06:49.888Z,3.63
2017-01-13T10:07:49.882Z,3.77
2017-01-13T10:08:49.882Z,3.82
2017-01-13T10:09:49.870Z,3.88
2017-01-13T10:10:49.047Z,3.89
2017-01-13T10:11:49.874Z,3.95
2017-01-13T10:12:49.870Z,4.04
2017-01-13T10:13:49.870Z,4.13
2017-01-13T10:14:49.854Z,4.07
2017-01-13T10:15:49.030Z,4.13
2017-01-13T10:16:49.433Z,4.14
2017-01-13T10:17:49.437Z,4.21
2017-01-13T10:18:49.845Z,4.03
2017-01-13T10:19:49.428Z,4.21
2017-01-13T10:20:49.020Z,4.18
2017-01-13T10:21:49.937Z,4.21
2017-01-13T10:22:49.413Z,4.36
2017-01-13T10:23:49.408Z,4.43
2017-01-13T10:24:49.404Z,4.49
2017-01-13T10:25:49.408Z,4.5
2017-01-13T10:26:49.404Z,4.5
2017-01-13T10:27:49.396Z,4.52
2017-01-13T10:28:49.401Z,4.43
2017-01-13T10:29:49.392Z,4.48
2017-01-13T10:30:49.388Z,4.48
2017-01-13T10:31:49.796Z,4.46
2017-01-13T10:32:49.792Z,4.5
2017-01-13T10:33:49.380Z,4.39
2017-01-13T10:34:49.372Z,4.39
2017-01-13T10:35:49.780Z,4.25
2017-01-13T10:36:49.372Z,4.21
2017-01-13T10:37:49.780Z,4.1
2017-01-13T10:38:49.360Z,4.04
2017-01-13T10:39:49.360Z,3.96
2017-01-13T10:40:49.768Z,3.95
2017-01-13T10:41:49.352Z,3.92
2017-01-13T10:42:49.352Z,3.96
2017-01-13T10:43:49.340Z,3.95
2017-01-13T10:44:49.348Z,3.78
2017-01-13T10:45:49.756Z,3.74
2017-01-13T10:46:49.344Z,3.81
2017-01-13T10:47:49.752Z,3.71
2017-01-13T10:48:49.744Z,3.77
2017-01-13T10:49:49.744Z,3.71
2017-01-13T10:50:49.316Z,3.92
2017-01-13T10:51:49.732Z,3.89
2017-01-13T10:52:49.724Z,3.82
2017-01-13T10:53:49.320Z,3.95
2017-01-13T10:54:48.912Z,4.03
2017-01-13T10:55:49.316Z,4.02
2017-01-13T10:56:49.712Z,4.07
2017-01-13T10:57:49.708Z,4.13
2017-01-13T10:58:49.708Z,4.14
2017-01-13T10:59:49.712Z,4.13
2017-01-13T11:00:49.708Z,4.04
2017-01-13T11:01:49.704Z,4.14
2017-01-13T11:02:49.288Z,4.04
2017-01-13T11:03:49.288Z,4.14
2017-01-13T11:04:49.284Z,4.25
2017-01-13T11:05:49.696Z,4.18
2017-01-13T11:06:49.273Z,4.2
2017-01-13T11:07:48.872Z,4.32
2017-01-13T11:08:49.688Z,4.4
2017-01-13T11:09:49.264Z,4.43
2017-01-13T11:10:49.260Z,4.57
2017-01-13T11:11:49.265Z,4.56
2017-01-13T11:12:49.665Z,4.61
2017-01-13T11:13:49.256Z,4.74
2017-01-13T11:14:49.252Z,4.61
2017-01-13T11:15:49.257Z,4.64
2017-01-13T11:16:49.669Z,4.63
2017-01-13T11:17:48.833Z,4.74
2017-01-13T11:18:49.653Z,4.74
2017-01-13T11:19:49.649Z,4.7
2017-01-13T11:20:49.649Z,4.74
2017-01-13T11:21:48.817Z,4.79
2017-01-13T11:22:49.241Z,4.79
2017-01-13T11:23:49.229Z,4.79
2017-01-13T11:24:49.229Z,4.71
2017-01-13T11:25:49.225Z,4.74
2017-01-13T11:26:49.633Z,4.66
2017-01-13T11:27:49.225Z,4.76
2017-01-13T11:28:49.217Z,4.79
2017-01-13T11:29:49.622Z,4.7
2017-01-13T11:30:49.213Z,4.79
2017-01-13T11:31:49.613Z,4.78
2017-01-13T11:32:49.205Z,4.74
2017-01-13T11:33:49.606Z,4.79
2017-01-13T11:34:49.185Z,4.75
2017-01-13T11:35:49.222Z,4.78
2017-01-13T11:36:49.190Z,4.66
2017-01-13T11:37:49.601Z,4.7
2017-01-13T11:38:49.594Z,4.57
2017-01-13T11:39:49.600Z,4.57
2017-01-13T11:40:49.178Z,4.58
2017-01-13T11:41:49.590Z,4.61
2017-01-13T11:42:49.158Z,4.64
2017-01-13T11:43:49.175Z,4.7
2017-01-13T11:44:49.578Z,4.79
2017-01-13T11:45:49.166Z,4.92
2017-01-13T11:46:48.746Z,5.05
2017-01-13T11:47:49.158Z,5.08
2017-01-13T11:48:49.570Z,5.28
2017-01-13T11:49:49.155Z,5.37
2017-01-13T11:50:49.151Z,5.36
2017-01-13T11:51:49.559Z,5.61
2017-01-13T11:52:49.142Z,5.58
2017-01-13T11:53:49.138Z,5.64
2017-01-13T11:54:49.127Z,5.62
2017-01-13T11:55:49.547Z,5.58
2017-01-13T11:56:49.134Z,5.56
2017-01-13T11:57:48.715Z,5.4
2017-01-13T11:58:49.127Z,5.31
2017-01-13T11:59:49.527Z,5.18
2017-01-13T12:00:49.119Z,5.18
2017-01-13T12:01:49.575Z,5.16
2017-01-13T12:02:49.107Z,5.04
2017-01-13T12:03:49.519Z,5.02
2017-01-13T12:04:49.515Z,4.94
2017-01-13T12:05:49.511Z,4.84
2017-01-13T12:06:49.091Z,4.67
2017-01-13T12:07:49.511Z,4.74
2017-01-13T12:08:49.495Z,4.61
2017-01-13T12:09:48.680Z,4.63
2017-01-13T12:10:49.504Z,4.56
2017-01-13T12:11:49.492Z,4.5
2017-01-13T12:12:49.076Z,4.42
2017-01-13T12:13:49.092Z,4.36
2017-01-13T12:14:49.487Z,4.28
2017-01-13T12:15:49.080Z,4.16
2017-01-13T12:16:49.065Z,4.1
2017-01-13T12:17:49.075Z,4
2017-01-13T12:18:49.476Z,3.91
2017-01-13T12:19:49.471Z,3.84
2017-01-13T12:20:49.472Z,3.64
2017-01-13T12:21:49.468Z,3.59
2017-01-13T12:22:49.056Z,3.56
2017-01-13T12:23:49.057Z,3.53
2017-01-13T12:24:49.464Z,3.5
2017-01-13T12:25:49.456Z,3.52
2017-01-13T12:26:49.462Z,3.58
2017-01-13T12:27:49.456Z,3.58
2017-01-13T12:28:49.449Z,3.7
2017-01-13T12:29:49.449Z,3.76
2017-01-13T12:30:49.441Z,3.88
2017-01-13T12:31:48.628Z,3.96
2017-01-13T12:32:49.441Z,4.06
2017-01-13T12:33:49.425Z,4.24
2017-01-13T12:34:49.457Z,4.36
2017-01-13T12:35:49.021Z,4.52
2017-01-13T12:36:49.425Z,4.58
2017-01-13T12:37:49.013Z,4.64
2017-01-13T12:38:49.421Z,4.86
2017-01-13T12:39:49.009Z,4.92
2017-01-13T12:40:49.413Z,5.01
2017-01-13T12:41:49.001Z,5.08
2017-01-13T12:42:49.406Z,5.18
2017-01-13T12:43:48.993Z,5.23
2017-01-13T12:44:49.405Z,5.28
2017-01-13T12:45:48.994Z,5.36
2017-01-13T12:46:49.390Z,5.41
2017-01-13T12:47:49.394Z,5.52
2017-01-13T12:48:48.570Z,5.61
2017-01-13T12:49:49.393Z,5.8
2017-01-13T12:50:48.569Z,5.84
2017-01-13T12:51:48.975Z,5.98
2017-01-13T12:52:49.374Z,6.15
2017-01-13T12:53:48.958Z,6.32
2017-01-13T12:54:49.374Z,6.35
2017-01-13T12:55:49.378Z,6.47
2017-01-13T12:56:49.370Z,6.49
2017-01-13T12:57:48.954Z,6.54
2017-01-13T12:58:48.954Z,6.52
2017-01-13T12:59:48.950Z,6.44
2017-01-13T13:00:48.538Z,6.38
2017-01-13T13:01:49.356Z,6.28
2017-01-13T13:02:49.354Z,6.06
2017-01-13T13:03:48.538Z,5.9
2017-01-13T13:04:48.930Z,5.69
2017-01-13T13:05:48.938Z,5.38
2017-01-13T13:06:48.526Z,5.13
2017-01-13T13:07:49.342Z,4.76
2017-01-13T13:08:48.922Z,4.42
2017-01-13T13:09:49.335Z,4.09
2017-01-13T13:10:49.330Z,3.73
2017-01-13T13:11:48.502Z,3.63
2017-01-13T13:12:48.910Z,3.34
2017-01-13T13:13:48.915Z,3.21
2017-01-13T13:14:49.311Z,3.16
2017-01-13T13:15:48.899Z,2.85
2017-01-13T13:16:48.899Z,2.77
2017-01-13T13:17:48.903Z,2.69
2017-01-13T13:18:48.887Z,2.58
2017-01-13T13:19:49.307Z,2.47
2017-01-13T13:20:48.891Z,2.4
2017-01-13T13:21:48.887Z,2.32